createdAt,value
2017-05-21T04:46:19.971Z,2644
2017-05-21T04:46:45.443Z,2672
2017-05-21T04:47:10.932Z,2692
2017-05-21T04:47:36.393Z,2712
2017-05-21T04:48:01.846Z,2732
2017-05-21T04:48:27.323Z,2752
2017-05-21T04:48:52.775Z,2776
2017-05-21T04:49:18.267Z,2796
2017-05-21T04:49:43.733Z,2824
2017-05-21T04:50:09.211Z,2840
2017-05-21T04:50:34.652Z,2860
2017-05-21T04:51:00.124Z,2880
2017-05-21T04:51:25.637Z,2900
2017-05-21T04:51:51.052Z,2916
2017-05-21T04:52:16.533Z,2944
2017-05-21T04:52:41.987Z,2960
2017-05-21T04:53:07.455Z,2980
2017-05-21T04:53:32.937Z,2996
2017-05-21T04:53:58.420Z,3012
2017-05-21T04:54:23.885Z,3024
2017-05-21T04:54:49.339Z,3044
2017-05-21T04:55:14.816Z,3064
2017-05-21T04:55:40.287Z,3084
2017-05-21T04:56:05.777Z,3092
2017-05-21T04:56:31.212Z,3096
2017-05-21T04:56:56.678Z,3104
2017-05-21T04:57:22.156Z,3120
2017-05-21T04:57:47.629Z,3128
2017-05-21T04:58:13.087Z,3144
2017-05-21T04:58:38.537Z,3164
2017-05-21T04:59:04.021Z,3180
2017-05-21T04:59:29.507Z,3192
2017-05-21T04:59:54.966Z,3200
2017-05-21T05:00:20.450Z,3216
2017-05-21T05:00:45.913Z,3232
2017-05-21T05:01:11.347Z,3256
2017-05-21T05:01:36.812Z,3268
2017-05-21T05:02:02.286Z,3280
2017-05-21T05:02:27.717Z,3296
2017-05-21T05:02:53.197Z,3312
2017-05-21T05:03:18.653Z,3332
2017-05-21T05:03:44.076Z,3352
2017-05-21T05:04:09.556Z,3368
2017-05-21T05:04:35.015Z,3376
2017-05-21T05:05:00.488Z,3396
2017-05-21T05:05:25.941Z,3416
2017-05-21T05:05:51.383Z,3432
2017-05-21T05:06:16.862Z,3460
2017-05-21T05:06:42.320Z,3476
2017-05-21T05:07:07.808Z,3504
2017-05-21T05:07:33.261Z,3528
2017-05-21T05:07:58.736Z,3552
2017-05-21T05:08:24.189Z,3568
2017-05-21T05:08:49.688Z,3580
2017-05-21T05:09:15.149Z,3592
2017-05-21T05:09:40.615Z,3608
2017-05-21T05:10:06.078Z,3624
2017-05-21T05:10:31.534Z,3636
2017-05-21T05:10:57.027Z,3644
2017-05-21T05:11:22.462Z,3660
2017-05-21T05:11:47.936Z,3672
2017-05-21T05:12:13.411Z,3680
2017-05-21T05:12:38.874Z,3684
2017-05-21T05:13:04.326Z,3696
2017-05-21T05:13:29.780Z,3716
2017-05-21T05:13:55.259Z,3728
2017-05-21T05:14:20.702Z,3744
2017-05-21T05:14:46.172Z,3760
2017-05-21T05:15:11.638Z,3772
2017-05-21T05:15:37.109Z,3784
2017-05-21T05:16:02.584Z,3804
2017-05-21T05:16:28.093Z,3816
2017-05-21T05:16:53.518Z,3824
2017-05-21T05:17:18.987Z,3840
2017-05-21T05:17:44.473Z,3856
2017-05-21T05:18:09.930Z,3868
2017-05-21T05:18:35.392Z,3880
2017-05-21T05:19:00.863Z,3888
2017-05-21T05:19:26.344Z,3972
2017-05-21T05:19:51.823Z,3980
2017-05-21T05:20:17.271Z,3992
2017-05-21T05:20:42.713Z,4008
2017-05-21T05:21:08.202Z,4024
2017-05-21T05:21:33.683Z,4040
2017-05-21T05:21:59.150Z,4056
2017-05-21T05:22:24.610Z,4072
2017-05-21T05:22:50.071Z,4088
2017-05-21T05:23:15.523Z,4092
2017-05-21T05:23:40.959Z,4112
2017-05-21T05:24:06.475Z,4132
2017-05-21T05:24:31.939Z,4136
2017-05-21T05:24:57.406Z,4156
2017-05-21T05:25:22.910Z,4180
2017-05-21T05:25:48.381Z,4192
2017-05-21T05:26:13.829Z,4208
2017-05-21T05:26:39.301Z,4224
2017-05-21T05:27:04.755Z,4236
2017-05-21T05:27:30.234Z,4240
2017-05-21T05:27:55.711Z,4252
2017-05-21T05:28:21.153Z,4272
2017-05-21T05:28:46.614Z,4272
2017-05-21T05:29:12.077Z,4280
2017-05-21T05:29:37.527Z,4288
2017-05-21T05:30:02.987Z,4304
2017-05-21T05:30:28.435Z,4312
2017-05-21T05:30:53.898Z,4328
2017-05-21T05:31:19.362Z,4344
2017-05-21T05:31:44.816Z,4352
2017-05-21T05:32:10.315Z,4368
2017-05-21T05:32:35.754Z,4376
2017-05-21T05:33:01.219Z,4396
2017-05-21T05:33:26.703Z,4400
2017-05-21T05:33:52.146Z,4568
2017-05-21T05:34:17.604Z,4584
2017-05-21T05:34:43.067Z,4608
2017-05-21T05:35:08.582Z,4632
2017-05-21T05:35:34.019Z,4664
2017-05-21T05:35:59.514Z,4700
2017-05-21T05:36:24.965Z,4736
2017-05-21T05:36:50.443Z,4752
2017-05-21T05:37:15.874Z,4776
2017-05-21T05:37:41.333Z,4800
2017-05-21T05:38:06.783Z,4824
2017-05-21T05:38:32.259Z,4844
2017-05-21T05:38:57.747Z,4852
2017-05-21T05:39:23.233Z,4876
2017-05-21T05:39:48.708Z,4904
2017-05-21T05:40:14.147Z,4920
2017-05-21T05:40:39.633Z,4928
2017-05-21T05:41:05.104Z,4932
2017-05-21T05:41:30.530Z,4940
2017-05-21T05:41:56.001Z,4948
2017-05-21T05:42:21.478Z,4952
2017-05-21T05:42:46.941Z,4940
2017-05-21T05:43:12.434Z,4956
2017-05-21T05:43:37.896Z,4948
2017-05-21T05:44:03.358Z,4964
2017-05-21T05:44:28.849Z,4972
2017-05-21T05:44:54.296Z,4984
2017-05-21T05:45:19.782Z,5000
2017-05-21T05:45:45.230Z,5012
2017-05-21T05:46:10.698Z,5016
2017-05-21T05:46:36.165Z,5012
2017-05-21T05:47:01.616Z,5008
2017-05-21T05:47:27.107Z,4996
2017-05-21T05:47:52.565Z,4984
2017-05-21T05:48:18.046Z,4992
2017-05-21T05:48:43.509Z,5000
2017-05-21T05:49:08.955Z,5016
2017-05-21T05:49:34.435Z,5044
2017-05-21T05:49:59.910Z,5076
2017-05-21T05:50:25.377Z,5108
2017-05-21T05:50:50.843Z,5148
2017-05-21T05:51:16.306Z,5176
2017-05-21T05:51:41.778Z,5216
2017-05-21T05:52:07.236Z,5232
2017-05-21T05:52:32.715Z,5256
2017-05-21T05:52:58.165Z,5268
2017-05-21T05:53:23.635Z,5268
2017-05-21T05:53:49.146Z,5280
2017-05-21T05:54:14.605Z,5284
2017-05-21T05:54:40.063Z,5296
2017-05-21T05:55:05.520Z,5308
2017-05-21T05:55:30.984Z,5320
2017-05-21T05:55:56.432Z,5336
2017-05-21T05:56:21.887Z,5348
2017-05-21T05:56:47.368Z,5356
2017-05-21T05:57:12.846Z,5352
2017-05-21T05:57:38.310Z,5344
2017-05-21T05:58:03.812Z,5340
2017-05-21T05:58:29.251Z,5324
2017-05-21T05:58:54.739Z,5316
2017-05-21T05:59:20.170Z,5324
2017-05-21T05:59:45.649Z,5312
2017-05-21T06:00:11.085Z,5312
2017-05-21T06:00:36.569Z,5324
2017-05-21T06:01:02.042Z,5324
2017-05-21T06:01:27.565Z,5332
2017-05-21T06:01:52.985Z,5332
2017-05-21T06:02:18.467Z,5328
2017-05-21T06:02:43.921Z,5316
2017-05-21T06:03:09.408Z,5312
2017-05-21T06:03:34.853Z,5312
2017-05-21T06:04:00.358Z,5296
2017-05-21T06:04:25.875Z,5292
2017-05-21T06:04:51.366Z,5292
2017-05-21T06:05:16.816Z,5304
2017-05-21T06:05:42.249Z,5296
2017-05-21T06:06:07.713Z,5304
2017-05-21T06:06:33.196Z,5300
2017-05-21T06:06:58.623Z,5296
2017-05-21T06:07:24.088Z,5296
2017-05-21T06:07:49.548Z,5296
2017-05-21T06:08:15.014Z,5300
2017-05-21T06:08:40.509Z,5320
2017-05-21T06:09:05.962Z,5324
2017-05-21T06:09:31.412Z,5344
2017-05-21T06:09:56.889Z,5344
2017-05-21T06:10:22.360Z,5356
2017-05-21T06:10:47.802Z,5360
2017-05-21T06:11:13.290Z,5372
2017-05-21T06:11:38.782Z,5380
2017-05-21T06:12:04.227Z,5384
2017-05-21T06:12:29.685Z,5392
2017-05-21T06:12:55.159Z,5412
2017-05-21T06:13:20.663Z,5420
2017-05-21T06:13:46.132Z,5424
2017-05-21T06:14:11.590Z,5420
2017-05-21T06:14:37.059Z,5416
2017-05-21T06:15:02.518Z,5420
2017-05-21T06:15:28.002Z,5432
2017-05-21T06:15:53.523Z,5428
2017-05-21T06:16:18.987Z,5428
2017-05-21T06:16:44.466Z,5440
2017-05-21T06:17:09.913Z,5456
2017-05-21T06:17:35.381Z,5452
2017-05-21T06:18:00.853Z,5448
2017-05-21T06:18:26.325Z,5456
2017-05-21T06:18:51.877Z,5452
2017-05-21T06:19:17.400Z,5472
2017-05-21T06:19:42.861Z,5492
2017-05-21T06:20:08.336Z,5492
2017-05-21T06:20:33.829Z,5504
2017-05-21T06:20:59.259Z,5508
2017-05-21T06:21:24.723Z,5500
2017-05-21T06:21:50.202Z,5492
2017-05-21T06:22:15.647Z,5512
2017-05-21T06:22:41.114Z,5520
2017-05-21T06:23:06.591Z,5516
2017-05-21T06:23:32.013Z,5520
2017-05-21T06:23:57.512Z,5524
2017-05-21T06:24:22.984Z,5520
2017-05-21T06:24:48.415Z,5532
2017-05-21T06:25:13.877Z,5532
2017-05-21T06:25:39.363Z,5540
2017-05-21T06:26:04.830Z,5544
2017-05-21T06:26:30.305Z,5540
2017-05-21T06:26:55.747Z,5544
2017-05-21T06:27:21.193Z,5548
2017-05-21T06:27:46.669Z,5552
2017-05-21T06:28:12.129Z,5540
2017-05-21T06:28:37.586Z,5544
2017-05-21T06:29:03.134Z,5528
2017-05-21T06:29:28.585Z,5532
2017-05-21T06:29:54.045Z,5540
2017-05-21T06:30:19.529Z,5552
2017-05-21T06:30:44.981Z,5552
2017-05-21T06:31:10.462Z,5548
2017-05-21T06:31:35.902Z,5548
2017-05-21T06:32:01.388Z,5544
2017-05-21T06:32:26.862Z,5532
2017-05-21T06:32:52.299Z,5536
2017-05-21T06:33:17.761Z,5536
2017-05-21T06:33:43.232Z,5544
2017-05-21T06:34:08.714Z,5532
2017-05-21T06:34:34.164Z,5536
2017-05-21T06:34:59.631Z,5548
2017-05-21T06:35:25.122Z,5552
2017-05-21T06:35:50.607Z,5572
2017-05-21T06:36:16.072Z,5568
2017-05-21T06:36:41.542Z,5580
2017-05-21T06:37:07.014Z,5576
2017-05-21T06:37:32.521Z,5580
2017-05-21T06:37:57.987Z,5592
2017-05-21T06:38:23.449Z,5588
2017-05-21T06:38:48.942Z,5600
2017-05-21T06:39:14.475Z,5592
2017-05-21T06:39:39.911Z,5576
2017-05-21T06:40:05.439Z,5576
2017-05-21T06:40:30.914Z,5576
2017-05-21T06:40:56.387Z,5572
2017-05-21T06:41:21.860Z,5584
2017-05-21T06:41:47.304Z,5584
2017-05-21T06:42:12.780Z,5580
2017-05-21T06:42:38.266Z,5584
2017-05-21T06:43:03.722Z,5580
2017-05-21T06:43:29.190Z,5576
2017-05-21T06:43:54.688Z,5588
2017-05-21T06:44:20.136Z,5588
2017-05-21T06:44:45.620Z,5588
2017-05-21T06:45:11.089Z,5592
2017-05-21T06:45:36.551Z,5584
2017-05-21T06:46:02.008Z,5580
2017-05-21T06:46:27.476Z,5580
2017-05-21T06:46:52.961Z,5568
2017-05-21T06:47:18.426Z,5560
2017-05-21T06:47:43.933Z,5544
2017-05-21T06:48:09.403Z,5528
2017-05-21T06:48:34.868Z,5520
2017-05-21T06:49:00.353Z,5516
2017-05-21T06:49:25.819Z,5520
2017-05-21T06:49:51.282Z,5516
2017-05-21T06:50:16.751Z,5516
2017-05-21T06:50:42.208Z,5520
2017-05-21T06:51:07.683Z,5532
2017-05-21T06:51:33.136Z,5516
2017-05-21T06:51:58.614Z,5524
2017-05-21T06:52:24.055Z,5512
2017-05-21T06:52:49.520Z,5516
2017-05-21T06:53:15.004Z,5504
2017-05-21T06:53:40.477Z,5488
2017-05-21T06:54:05.927Z,5484
2017-05-21T06:54:31.413Z,5480
2017-05-21T06:54:56.908Z,5472
2017-05-21T06:55:22.388Z,5464
2017-05-21T06:55:47.863Z,5452
2017-05-21T06:56:13.327Z,5440
2017-05-21T06:56:38.802Z,5420
2017-05-21T06:57:04.314Z,5412
2017-05-21T06:57:29.772Z,5400
2017-05-21T06:57:55.236Z,5396
2017-05-21T06:58:20.735Z,5388
2017-05-21T06:58:46.212Z,5380
2017-05-21T06:59:11.677Z,5368
2017-05-21T06:59:37.154Z,5360
2017-05-21T07:00:02.629Z,5352
2017-05-21T07:00:28.086Z,5340
2017-05-21T07:00:53.553Z,5328
2017-05-21T07:01:19.033Z,5316
2017-05-21T07:01:44.490Z,5312
2017-05-21T07:02:09.974Z,5304
2017-05-21T07:02:35.442Z,5288
2017-05-21T07:03:00.936Z,5288
2017-05-21T07:03:26.407Z,5280
2017-05-21T07:03:51.880Z,5276
2017-05-21T07:04:17.377Z,5264
2017-05-21T07:04:42.841Z,5260
2017-05-21T07:05:08.315Z,5252
2017-05-21T07:05:33.763Z,5248
2017-05-21T07:05:59.247Z,5244
2017-05-21T07:06:24.736Z,5240
2017-05-21T07:06:50.203Z,5236
2017-05-21T07:07:15.689Z,5236
2017-05-21T07:07:41.223Z,5236
2017-05-21T07:08:06.640Z,5236
2017-05-21T07:08:32.121Z,5232
2017-05-21T07:08:57.596Z,5216
2017-05-21T07:09:23.058Z,5204
2017-05-21T07:09:48.531Z,5192
2017-05-21T07:10:14.011Z,5192
2017-05-21T07:10:39.485Z,5180
2017-05-21T07:11:04.975Z,5172
2017-05-21T07:11:30.454Z,5164
2017-05-21T07:11:55.942Z,5160
2017-05-21T07:12:21.403Z,5152
2017-05-21T07:12:46.902Z,5148
2017-05-21T07:13:12.365Z,5132
2017-05-21T07:13:37.817Z,5116
2017-05-21T07:14:03.339Z,5108
2017-05-21T07:14:28.805Z,5104
2017-05-21T07:14:54.237Z,5088
2017-05-21T07:15:19.749Z,5080
2017-05-21T07:15:45.216Z,5076
2017-05-21T07:16:10.655Z,5068
2017-05-21T07:16:36.116Z,5064
2017-05-21T07:17:01.620Z,5060
2017-05-21T07:17:27.085Z,5056
2017-05-21T07:17:52.559Z,5044
2017-05-21T07:18:18.030Z,5036
2017-05-21T07:18:43.525Z,5020
2017-05-21T07:19:08.989Z,5008
2017-05-21T07:19:34.452Z,5000
2017-05-21T07:19:59.919Z,4988
2017-05-21T07:20:25.360Z,4980
2017-05-21T07:20:50.833Z,4976
2017-05-21T07:21:16.292Z,4972
2017-05-21T07:21:41.756Z,4964
2017-05-21T07:22:07.209Z,4964
2017-05-21T07:22:32.697Z,4948
2017-05-21T07:22:58.180Z,4944
2017-05-21T07:23:23.693Z,4940
2017-05-21T07:23:49.157Z,4932
2017-05-21T07:24:14.646Z,4920
2017-05-21T07:24:40.123Z,4912
2017-05-21T07:25:05.598Z,4908
2017-05-21T07:25:31.086Z,4900
2017-05-21T07:25:56.543Z,4896
2017-05-21T07:26:22.036Z,4884
2017-05-21T07:26:47.520Z,4872
2017-05-21T07:27:13.015Z,4864
2017-05-21T07:27:38.468Z,4860
2017-05-21T07:28:03.958Z,4856
2017-05-21T07:28:29.448Z,4860
2017-05-21T07:28:54.908Z,4864
2017-05-21T07:29:20.384Z,4872
2017-05-21T07:29:45.866Z,4876
2017-05-21T07:30:11.335Z,4880
2017-05-21T07:30:36.787Z,4884
2017-05-21T07:31:02.258Z,4876
2017-05-21T07:31:27.744Z,4876
2017-05-21T07:31:53.196Z,4872
2017-05-21T07:32:18.745Z,4868
2017-05-21T07:32:44.176Z,4864
2017-05-21T07:33:09.628Z,4864
2017-05-21T07:33:35.107Z,4868
2017-05-21T07:34:00.568Z,4868
2017-05-21T07:34:26.060Z,4872
2017-05-21T07:34:51.542Z,4872
2017-05-21T07:35:16.999Z,4860
2017-05-21T07:35:42.479Z,4856
2017-05-21T07:36:07.994Z,4852
2017-05-21T07:36:33.447Z,4848
2017-05-21T07:36:58.950Z,4832
2017-05-21T07:37:24.411Z,4832
2017-05-21T07:37:49.913Z,4820
2017-05-21T07:38:15.378Z,4804
2017-05-21T07:38:40.856Z,4796
2017-05-21T07:39:06.349Z,4784
2017-05-21T07:39:31.818Z,4748
2017-05-21T07:39:57.288Z,4764
2017-05-21T07:40:22.771Z,4768
2017-05-21T07:40:48.249Z,4756
2017-05-21T07:41:13.714Z,4736
2017-05-21T07:41:39.210Z,4432
2017-05-21T07:42:04.674Z,4420
2017-05-21T07:42:30.171Z,4424
2017-05-21T07:42:55.630Z,4408
2017-05-21T07:43:21.097Z,4392
2017-05-21T07:43:46.572Z,4404
2017-05-21T07:44:12.060Z,4400
2017-05-21T07:44:37.540Z,4396
2017-05-21T07:45:03.017Z,4396
2017-05-21T07:45:28.495Z,4416
2017-05-21T07:45:53.963Z,4428
2017-05-21T07:46:19.425Z,4428
2017-05-21T07:46:44.911Z,4436
2017-05-21T07:47:10.377Z,4432
2017-05-21T07:47:35.849Z,4428
2017-05-21T07:48:01.326Z,4428
2017-05-21T07:48:26.816Z,4420
2017-05-21T07:48:52.287Z,4424
2017-05-21T07:49:17.785Z,4408
2017-05-21T07:49:43.287Z,4408
2017-05-21T07:50:08.801Z,4400
2017-05-21T07:50:34.311Z,4400
2017-05-21T07:50:59.758Z,4396
2017-05-21T07:51:25.239Z,4404
2017-05-21T07:51:50.729Z,4408
2017-05-21T07:52:16.200Z,4408
2017-05-21T07:52:41.661Z,4408
2017-05-21T07:53:07.126Z,4416
2017-05-21T07:53:32.602Z,4428
2017-05-21T07:53:58.078Z,4432
2017-05-21T07:54:23.533Z,4420
2017-05-21T07:54:48.996Z,4424
2017-05-21T07:55:14.490Z,4448
2017-05-21T07:55:39.964Z,4460
2017-05-21T07:56:05.446Z,4524
2017-05-21T07:56:30.909Z,4628
2017-05-21T07:56:56.385Z,5112
2017-05-21T07:57:21.861Z,6072
2017-05-21T07:57:47.310Z,7936
2017-05-21T07:58:12.768Z,9932
2017-05-21T07:58:38.245Z,12908
2017-05-21T07:59:03.676Z,17216
2017-05-21T07:59:29.150Z,19872
2017-05-21T07:59:54.596Z,20736
2017-05-21T08:00:20.083Z,20192
2017-05-21T08:00:45.561Z,18048
2017-05-21T08:01:11.011Z,15264
2017-05-21T08:01:36.461Z,12628
2017-05-21T08:02:01.930Z,10044
2017-05-21T08:02:27.423Z,8552
2017-05-21T08:02:52.887Z,7264
2017-05-21T08:03:18.363Z,6480
2017-05-21T08:03:43.824Z,6120
2017-05-21T08:04:09.317Z,5764
2017-05-21T08:04:34.776Z,5552
2017-05-21T08:05:00.249Z,5352
2017-05-21T08:05:25.753Z,5200
2017-05-21T08:05:51.241Z,5072
2017-05-21T08:06:16.722Z,5048
2017-05-21T08:06:42.156Z,4984
2017-05-21T08:07:07.669Z,4920
2017-05-21T08:07:33.105Z,4844
2017-05-21T08:07:58.574Z,4816
2017-05-21T08:08:24.073Z,4756
2017-05-21T08:08:49.523Z,4740
2017-05-21T08:09:14.986Z,4732
2017-05-21T08:09:40.466Z,4700
2017-05-21T08:10:05.925Z,4656
2017-05-21T08:10:31.419Z,4632
2017-05-21T08:10:56.916Z,4608
2017-05-21T08:11:22.394Z,4596
2017-05-21T08:11:47.829Z,4580
2017-05-21T08:12:13.329Z,4596
2017-05-21T08:12:38.839Z,4580
2017-05-21T08:13:04.292Z,4572
2017-05-21T08:13:29.763Z,4588
2017-05-21T08:13:55.285Z,4596
2017-05-21T08:14:20.816Z,4596
2017-05-21T08:14:46.230Z,4544
2017-05-21T08:15:11.675Z,4592
2017-05-21T08:15:37.164Z,4608
2017-05-21T08:16:02.611Z,4596
2017-05-21T08:16:28.097Z,4592
2017-05-21T08:16:53.600Z,4588
2017-05-21T08:17:19.068Z,4584
2017-05-21T08:17:44.521Z,4588
2017-05-21T08:18:10.013Z,4572
2017-05-21T08:18:35.482Z,4580
2017-05-21T08:19:00.954Z,4576
2017-05-21T08:19:26.429Z,4588
2017-05-21T08:19:51.873Z,4584
2017-05-21T08:20:17.341Z,4572
2017-05-21T08:20:42.842Z,4580
2017-05-21T08:21:08.305Z,4588
2017-05-21T08:21:33.795Z,4608
2017-05-21T08:21:59.263Z,4620
2017-05-21T08:22:24.745Z,4644
2017-05-21T08:22:50.217Z,4656
2017-05-21T08:23:15.704Z,4672
2017-05-21T08:23:41.186Z,4700
2017-05-21T08:24:06.646Z,4696
2017-05-21T08:24:32.095Z,4708
2017-05-21T08:24:57.568Z,4716
2017-05-21T08:25:23.035Z,4716
2017-05-21T08:25:48.501Z,4724
2017-05-21T08:26:13.998Z,4732
2017-05-21T08:26:39.493Z,4748
2017-05-21T08:27:05.000Z,4748
2017-05-21T08:27:30.445Z,4776
2017-05-21T08:27:55.913Z,4784
2017-05-21T08:28:21.384Z,4792
2017-05-21T08:28:46.847Z,4764
2017-05-21T08:29:12.300Z,4744
2017-05-21T08:29:37.762Z,4752
2017-05-21T08:30:03.230Z,4772
2017-05-21T08:30:28.687Z,4760
2017-05-21T08:30:54.159Z,4776
2017-05-21T08:31:19.612Z,4792
2017-05-21T08:31:45.107Z,4796
2017-05-21T08:32:10.541Z,4720
2017-05-21T08:32:36.031Z,4716
2017-05-21T08:33:01.494Z,4764
2017-05-21T08:33:26.950Z,4808
2017-05-21T08:33:52.433Z,4780
2017-05-21T08:34:17.929Z,4796
2017-05-21T08:34:43.359Z,4840
2017-05-21T08:35:08.901Z,4712
2017-05-21T08:35:34.356Z,4732
2017-05-21T08:35:59.832Z,4780
2017-05-21T08:36:25.303Z,4640
2017-05-21T08:36:50.772Z,4700
2017-05-21T08:37:16.220Z,4760
2017-05-21T08:37:41.716Z,4768
2017-05-21T08:38:07.193Z,4788
2017-05-21T08:38:32.636Z,4748
2017-05-21T08:38:58.108Z,4872
2017-05-21T08:39:23.590Z,4940
2017-05-21T08:39:49.116Z,4892
2017-05-21T08:40:14.545Z,4980
2017-05-21T08:40:39.978Z,4996
2017-05-21T08:41:05.485Z,4988
2017-05-21T08:41:30.961Z,4984
2017-05-21T08:41:56.432Z,4940
2017-05-21T08:42:21.917Z,4968
2017-05-21T08:42:47.397Z,4920
2017-05-21T08:43:12.870Z,5116
2017-05-21T08:43:38.335Z,5172
2017-05-21T08:44:03.837Z,5220
2017-05-21T08:44:29.420Z,5148
2017-05-21T08:44:54.872Z,5080
2017-05-21T08:45:20.351Z,5108
2017-05-21T08:45:45.869Z,5132
2017-05-21T08:46:11.258Z,4996
2017-05-21T08:46:36.751Z,5020
2017-05-21T08:47:02.226Z,5128
2017-05-21T08:47:27.687Z,5076
2017-05-21T08:47:53.248Z,4952
2017-05-21T08:48:18.746Z,4928
2017-05-21T08:48:44.223Z,4748
2017-05-21T08:49:09.674Z,4632
2017-05-21T08:49:35.142Z,4724
2017-05-21T08:50:00.593Z,4884
2017-05-21T08:50:26.097Z,4900
2017-05-21T08:50:51.567Z,4804
2017-05-21T08:51:17.028Z,4788
2017-05-21T08:51:42.507Z,4980
2017-05-21T08:52:08.002Z,4716
2017-05-21T08:52:33.466Z,4700
2017-05-21T08:52:58.947Z,4904
2017-05-21T08:53:24.418Z,4876
2017-05-21T08:53:49.886Z,4740
2017-05-21T08:54:15.344Z,4916
2017-05-21T08:54:40.810Z,4932
2017-05-21T08:55:06.265Z,4840
2017-05-21T08:55:31.713Z,4880
2017-05-21T08:55:57.243Z,4988
2017-05-21T08:56:22.750Z,5100
2017-05-21T08:56:48.196Z,5084
2017-05-21T08:57:13.687Z,4936
2017-05-21T08:57:39.146Z,4920
2017-05-21T08:58:04.616Z,5060
2017-05-21T08:58:30.086Z,5104
2017-05-21T08:58:55.554Z,5212
2017-05-21T08:59:21.062Z,4704
2017-05-21T08:59:46.528Z,4004
2017-05-21T09:00:12.010Z,3872
2017-05-21T09:00:37.454Z,4724
2017-05-21T09:01:02.938Z,3920
2017-05-21T09:01:28.429Z,3892
2017-05-21T09:01:53.904Z,3936
2017-05-21T09:02:19.388Z,4052
2017-05-21T09:02:44.832Z,6040
2017-05-21T09:03:10.280Z,6272
2017-05-21T09:03:35.963Z,6308
2017-05-21T09:04:01.429Z,4684
2017-05-21T09:04:26.921Z,6324
2017-05-21T09:04:52.363Z,4936
2017-05-21T09:05:17.829Z,4676
2017-05-21T09:05:43.269Z,5748
2017-05-21T09:06:08.724Z,6132
2017-05-21T09:06:34.222Z,6276
2017-05-21T09:06:59.715Z,6316
2017-05-21T09:07:25.155Z,4696
2017-05-21T09:07:50.652Z,5304
2017-05-21T09:08:16.118Z,5564
2017-05-21T09:08:41.584Z,6420
2017-05-21T09:09:07.089Z,6420
2017-05-21T09:09:32.551Z,6440
2017-05-21T09:09:58.027Z,6364
2017-05-21T09:10:23.490Z,6288
2017-05-21T09:10:48.961Z,6380
2017-05-21T09:11:14.438Z,6464
2017-05-21T09:11:39.906Z,6196
2017-05-21T09:12:05.378Z,6160
2017-05-21T09:12:30.847Z,6044
2017-05-21T09:12:56.329Z,6100
2017-05-21T09:13:21.812Z,6320
2017-05-21T09:13:47.306Z,6704
2017-05-21T09:14:12.773Z,6824
2017-05-21T09:14:38.225Z,6704
2017-05-21T09:15:03.707Z,6452
2017-05-21T09:15:29.200Z,6524
2017-05-21T09:15:54.670Z,6860
2017-05-21T09:16:20.142Z,6828
2017-05-21T09:16:45.616Z,7136
2017-05-21T09:17:11.095Z,7216
2017-05-21T09:17:36.562Z,7316
2017-05-21T09:18:02.027Z,7560
2017-05-21T09:18:27.524Z,7912
2017-05-21T09:18:52.987Z,8164
2017-05-21T09:19:18.471Z,8552
2017-05-21T09:19:43.964Z,8824
2017-05-21T09:20:09.421Z,9120
2017-05-21T09:20:34.903Z,9252
2017-05-21T09:21:00.338Z,9208
2017-05-21T09:21:25.807Z,9268
2017-05-21T09:21:51.274Z,9520
2017-05-21T09:22:16.758Z,9464
2017-05-21T09:22:42.207Z,9544
2017-05-21T09:23:07.677Z,9776
2017-05-21T09:23:33.123Z,9840
2017-05-21T09:23:58.635Z,9788
2017-05-21T09:24:24.100Z,9704
2017-05-21T09:24:49.567Z,9584
2017-05-21T09:25:15.061Z,9584
2017-05-21T09:25:40.541Z,9700
2017-05-21T09:26:06.029Z,9432
2017-05-21T09:26:31.536Z,9876
2017-05-21T09:26:56.948Z,9572
2017-05-21T09:27:22.392Z,10172
2017-05-21T09:27:47.843Z,10388
2017-05-21T09:28:13.317Z,10264
2017-05-21T09:28:38.785Z,10444
2017-05-21T09:29:04.276Z,10668
2017-05-21T09:29:29.751Z,10488
2017-05-21T09:29:55.217Z,10084
2017-05-21T09:30:20.691Z,9800
2017-05-21T09:30:46.189Z,9304
2017-05-21T09:31:11.654Z,8608
2017-05-21T09:31:37.136Z,8940
2017-05-21T09:32:02.612Z,8864
2017-05-21T09:32:28.081Z,8832
2017-05-21T09:32:53.541Z,8752
2017-05-21T09:33:19.024Z,8612
2017-05-21T09:33:44.494Z,8624
2017-05-21T09:34:09.973Z,8648
2017-05-21T09:34:35.427Z,8412
2017-05-21T09:35:00.912Z,8340
2017-05-21T09:35:26.369Z,8300
2017-05-21T09:35:51.858Z,8164
2017-05-21T09:36:17.302Z,8020
2017-05-21T09:36:42.775Z,7820
2017-05-21T09:37:08.252Z,7596
2017-05-21T09:37:33.699Z,6516
2017-05-21T09:37:59.204Z,7420
2017-05-21T09:38:25.186Z,6248
2017-05-21T09:38:50.724Z,6624
2017-05-21T09:39:16.153Z,6948
2017-05-21T09:39:41.642Z,7064
2017-05-21T09:40:07.138Z,7080
2017-05-21T09:40:32.601Z,7348
2017-05-21T09:40:58.075Z,7488
2017-05-21T09:41:23.522Z,7656
2017-05-21T09:41:49.021Z,7652
2017-05-21T09:42:14.462Z,7552
2017-05-21T09:42:39.946Z,7480
2017-05-21T09:43:05.412Z,7496
2017-05-21T09:43:30.869Z,7508
2017-05-21T09:43:56.333Z,7616
2017-05-21T09:44:21.801Z,7720
2017-05-21T09:44:47.265Z,7860
2017-05-21T09:45:12.739Z,7968
2017-05-21T09:45:38.187Z,8088
2017-05-21T09:46:03.758Z,8232
2017-05-21T09:46:29.320Z,8312
2017-05-21T09:46:54.792Z,8460
2017-05-21T09:47:20.270Z,8412
2017-05-21T09:47:45.711Z,8168
2017-05-21T09:48:11.175Z,8056
2017-05-21T09:48:36.657Z,8008
2017-05-21T09:49:02.129Z,7956
2017-05-21T09:49:27.580Z,7844
2017-05-21T09:49:53.091Z,7772
2017-05-21T09:50:18.602Z,7656
2017-05-21T09:50:44.075Z,7512
2017-05-21T09:51:09.534Z,7396
2017-05-21T09:51:35.027Z,7400
2017-05-21T09:52:00.474Z,7520
2017-05-21T09:52:25.960Z,7696
2017-05-21T09:52:51.480Z,7912
2017-05-21T09:53:16.929Z,8260
2017-05-21T09:53:42.415Z,8540
2017-05-21T09:54:07.895Z,8632
2017-05-21T09:54:33.392Z,8616
2017-05-21T09:54:58.850Z,8464
2017-05-21T09:55:24.321Z,8200
2017-05-21T09:55:49.799Z,7904
2017-05-21T09:56:15.259Z,7604
2017-05-21T09:56:40.776Z,7344
2017-05-21T09:57:06.241Z,7204
2017-05-21T09:57:31.735Z,7096
2017-05-21T09:57:57.210Z,6964
2017-05-21T09:58:22.727Z,6844
2017-05-21T09:58:48.181Z,6796
2017-05-21T09:59:13.665Z,6764
2017-05-21T09:59:39.139Z,6888
2017-05-21T10:00:04.607Z,7136
2017-05-21T10:00:30.052Z,7360
2017-05-21T10:00:55.544Z,7584
2017-05-21T10:01:20.993Z,7628
2017-05-21T10:01:46.460Z,7572
2017-05-21T10:02:11.914Z,7356
2017-05-21T10:02:37.393Z,7220
2017-05-21T10:03:02.861Z,6560
2017-05-21T10:03:28.297Z,6404
2017-05-21T10:03:53.803Z,6520
2017-05-21T10:04:19.283Z,6744
2017-05-21T10:04:44.757Z,7868
2017-05-21T10:05:10.257Z,8124
2017-05-21T10:05:35.685Z,8452
2017-05-21T10:06:01.171Z,8764
2017-05-21T10:06:26.614Z,9160
2017-05-21T10:06:52.117Z,9484
2017-05-21T10:07:17.585Z,9512
2017-05-21T10:07:43.064Z,9348
2017-05-21T10:08:08.551Z,9200
2017-05-21T10:08:34.007Z,9060
2017-05-21T10:08:59.462Z,8904
2017-05-21T10:09:24.942Z,8776
2017-05-21T10:09:50.406Z,8720
2017-05-21T10:10:15.888Z,8692
2017-05-21T10:10:41.380Z,8780
2017-05-21T10:11:06.870Z,8884
2017-05-21T10:11:32.381Z,8976
2017-05-21T10:11:57.826Z,9024
2017-05-21T10:12:23.313Z,9048
2017-05-21T10:12:48.805Z,9132
2017-05-21T10:13:14.274Z,9356
2017-05-21T10:13:39.740Z,9416
2017-05-21T10:14:05.224Z,9296
2017-05-21T10:14:30.678Z,9168
2017-05-21T10:14:56.214Z,8800
2017-05-21T10:15:21.623Z,8520
2017-05-21T10:15:47.126Z,8264
2017-05-21T10:16:12.567Z,7980
2017-05-21T10:16:38.048Z,7732
2017-05-21T10:17:03.489Z,7688
2017-05-21T10:17:28.962Z,7844
2017-05-21T10:17:54.435Z,7992
2017-05-21T10:18:19.882Z,8104
2017-05-21T10:18:45.372Z,8068
2017-05-21T10:19:10.819Z,7964
2017-05-21T10:19:36.302Z,7784
2017-05-21T10:20:01.754Z,7668
2017-05-21T10:20:27.261Z,7596
2017-05-21T10:20:52.703Z,7556
2017-05-21T10:21:18.187Z,7536
2017-05-21T10:21:43.636Z,7568
2017-05-21T10:22:09.094Z,7604
2017-05-21T10:22:34.591Z,7752
2017-05-21T10:23:00.056Z,8028
2017-05-21T10:23:25.535Z,8228
2017-05-21T10:23:51.014Z,8244
2017-05-21T10:24:16.487Z,8224
2017-05-21T10:24:41.966Z,8264